ADDS METAR Data

Data at: 0717 UTC 16 Jan 2018

METAR for:KEWR (Newark Intl, NJ, US)
Text:KEWR 160651Z 02004KT 10SM BKN018 BKN250 M05/M08 A3049 RMK AO2 SLP323 T10501083
Temperature: -5.0°C ( 23°F)
Dewpoint: -8.3°C ( 17°F) [RH = 78%]
Pressure (altimeter):30.49 inches Hg (1032.6 mb) [Sea level pressure: 1032.3 mb]
Winds:from the NNE (20 degrees) at 5 MPH (4 knots; 2.1 m/s)
Visibility:10 or more sm (16+ km)
Ceiling:1800 feet AGL
Clouds: broken clouds at 1800 feet AGL, broken clouds at 25000 feet AGL